Time;durP1;ratioP1;P1;durP2;ratioP2;P2;SDS_P1;SDS_P2;PMS_P1;PMS_P2;Temp;Humidity;BMP_temperature;BMP_pressure;BME280_temperature;BME280_humidity;BME280_pressure;Samples;Min_cycle;Max_cycle;Signal;HPM_P1;HPM_P2
2022/08/22 00:02:03;;;;;;;4.62;1.27;;;;;;;17.30;100.00;100609.58;5147632;57;1141121;-65
2022/08/22 00:07:13;;;;;;;3.97;1.10;;;;;;;17.32;100.00;100614.77;5069546;58;1141075;-66
2022/08/22 00:12:36;;;;;;;1.33;1.20;;;;;;;17.32;100.00;100612.09;5091141;57;1141124;-64
2022/08/22 00:17:49;;;;;;;5.67;1.40;;;;;;;17.27;100.00;100610.39;5135384;57;1141154;-66
2022/08/22 00:23:11;;;;;;;1.50;1.13;;;;;;;17.22;100.00;100607.72;5074779;58;1141271;-66
2022/08/22 00:28:42;;;;;;;6.28;1.80;;;;;;;17.22;100.00;100610.39;5108767;56;1141426;-67
2022/08/22 00:34:04;;;;;;;2.25;1.27;;;;;;;17.21;100.00;100615.41;5156108;56;1140464;-65
2022/08/22 00:39:15;;;;;;;10.47;1.90;;;;;;;17.25;100.00;100619.09;5159149;56;1141136;-66
2022/08/22 00:44:45;;;;;;;5.30;1.40;;;;;;;17.25;100.00;100621.77;5112761;56;1143218;-64
2022/08/22 00:49:58;;;;;;;5.40;1.30;;;;;;;17.24;100.00;100614.25;5146211;56;1139083;-65
2022/08/22 00:55:18;;;;;;;;;;;;;;;17.20;100.00;100627.59;5149652;56;1139124;-64
2022/08/22 01:00:30;;;;;;;2.90;1.12;;;;;;;17.21;100.00;100623.42;5110748;56;976526;-64
2022/08/22 01:05:53;;;;;;;10.40;1.82;;;;;;;17.12;100.00;100623.02;5145063;56;1137089;-65
2022/08/22 01:11:23;;;;;;;5.40;1.60;;;;;;;17.07;100.00;100627.19;5187627;56;1141239;-64
2022/08/22 01:16:42;;;;;;;9.36;2.18;;;;;;;17.06;100.00;100631.69;5217046;56;1141311;-64
2022/08/22 01:22:38;;;;;;;4.30;1.72;;;;;;;17.09;100.00;100639.39;5146147;56;1141112;-64
2022/08/22 01:28:27;;;;;;;1.70;1.60;;;;;;;17.12;100.00;100644.89;5228678;56;1141222;-64
2022/08/22 01:34:09;;;;;;;2.67;1.70;;;;;;;17.07;100.00;100647.22;5228808;56;1141370;-66
2022/08/22 01:39:52;;;;;;;3.53;1.60;;;;;;;17.08;100.00;100651.08;5229012;56;1141151;-65
2022/08/22 01:45:26;;;;;;;10.13;2.07;;;;;;;17.06;100.00;100657.57;5228995;56;1139180;-67
2022/08/22 01:50:47;;;;;;;5.43;1.53;;;;;;;16.96;100.00;100656.84;5228861;56;1141139;-65
2022/08/22 01:56:04;;;;;;;10.60;2.00;;;;;;;16.93;100.00;100655.33;5228713;56;1139140;-66
2022/08/22 02:01:38;;;;;;;9.33;1.87;;;;;;;16.95;100.00;100649.33;5228533;56;1141183;-62
2022/08/22 02:07:13;;;;;;;5.33;1.90;;;;;;;16.96;100.00;100645.62;5223873;56;1141147;-64
2022/08/22 02:12:38;;;;;;;3.62;1.95;;;;;;;16.87;100.00;100643.91;5154209;56;1141121;-64
2022/08/22 02:18:11;;;;;;;4.60;1.67;;;;;;;16.80;100.00;100645.55;5125983;57;1141147;-66
2022/08/22 02:23:21;;;;;;;8.17;2.90;;;;;;;16.77;100.00;100648.03;5050502;57;1141463;-65
2022/08/22 02:29:00;;;;;;;3.57;2.17;;;;;;;16.69;100.00;100648.45;5042050;57;1141044;-64
2022/08/22 02:34:41;;;;;;;4.97;1.73;;;;;;;16.67;100.00;100654.44;4773751;61;1141201;-64
2022/08/22 02:40:04;;;;;;;2.87;1.90;;;;;;;16.62;100.00;100663.39;4773198;61;1141436;-64
2022/08/22 02:45:32;;;;;;;3.80;2.08;;;;;;;16.61;100.00;100660.38;4766689;61;1139220;-64
2022/08/22 02:51:02;;;;;;;4.13;2.17;;;;;;;16.58;100.00;100658.85;4829603;61;1139412;-64
2022/08/22 02:56:21;;;;;;;3.80;2.02;;;;;;;16.60;100.00;100650.20;4955137;59;1139208;-66
2022/08/22 03:01:32;;;;;;;7.60;2.27;;;;;;;16.62;100.00;100646.87;4984219;58;1139122;-64
2022/08/22 03:06:46;;;;;;;10.50;2.23;;;;;;;16.63;100.00;100640.58;4937737;60;1137092;-64
2022/08/22 03:11:54;;;;;;;;;;;;;;;16.67;100.00;100639.75;5088087;57;1142840;-63
2022/08/22 03:17:16;;;;;;;1.80;1.70;;;;;;;16.67;100.00;100635.25;5153305;56;978429;-63
2022/08/22 03:22:42;;;;;;;6.05;2.30;;;;;;;16.71;100.00;100643.80;5194031;56;1139095;-64
2022/08/22 03:28:15;;;;;;;5.20;2.10;;;;;;;16.74;100.00;100631.47;5202593;56;1141185;-64
2022/08/22 03:33:26;;;;;;;9.67;2.17;;;;;;;16.70;100.00;100627.42;5215115;56;1141188;-65
2022/08/22 03:38:40;;;;;;;5.03;2.58;;;;;;;16.73;100.00;100633.80;5174499;56;1141221;-64
2022/08/22 03:44:05;;;;;;;3.30;2.03;;;;;;;16.79;100.00;100638.53;5214807;56;1141161;-66
2022/08/22 03:49:45;;;;;;;6.57;2.23;;;;;;;16.88;100.00;100641.09;5214461;56;1141232;-66
2022/08/22 03:55:15;;;;;;;6.53;2.20;;;;;;;16.94;100.00;100644.98;5214852;56;1141125;-65
2022/08/22 04:01:02;;;;;;;2.45;1.77;;;;;;;17.02;100.00;100650.36;5174284;56;1139047;-65
2022/08/22 04:06:51;;;;;;;4.10;2.00;;;;;;;17.02;100.00;100650.36;5111799;56;1138995;-65
2022/08/22 04:12:39;;;;;;;8.00;2.42;;;;;;;17.02;100.00;100647.69;5073328;56;1137243;-63
2022/08/22 04:18:19;;;;;;;9.80;2.60;;;;;;;16.97;100.00;100648.64;5201805;56;1141121;-66
2022/08/22 04:23:57;;;;;;;4.27;2.27;;;;;;;17.02;100.00;100661.55;5122789;57;1141036;-63
2022/08/22 04:29:37;;;;;;;6.87;2.10;;;;;;;17.07;100.00;100666.77;5122379;57;1140677;-64
2022/08/22 04:34:53;;;;;;;2.87;2.22;;;;;;;17.11;100.00;100668.11;5119710;56;1141194;-66
2022/08/22 04:40:10;;;;;;;11.35;1.65;;;;;;;17.13;100.00;100670.13;5073490;57;1141129;-66
2022/08/22 04:45:36;;;;;;;6.60;2.05;;;;;;;17.25;100.00;100680.58;5174933;56;1143202;-64
2022/08/22 04:50:55;;;;;;;4.60;1.90;;;;;;;17.25;100.00;100680.58;5226455;56;1139096;-65
2022/08/22 04:56:47;;;;;;;2.37;2.05;;;;;;;17.25;100.00;100682.75;5234479;56;1138902;-64
2022/08/22 05:01:59;;;;;;;2.98;2.60;;;;;;;17.29;100.00;100681.42;5140216;56;1139297;-65
2022/08/22 05:07:20;;;;;;;6.60;1.80;;;;;;;17.23;100.00;100686.92;5126711;57;1137000;-64
2022/08/22 05:12:34;;;;;;;6.80;2.30;;;;;;;17.21;100.00;100686.23;5131764;56;1141319;-65
2022/08/22 05:17:43;;;;;;;6.87;2.07;;;;;;;17.25;100.00;100693.95;5165203;56;1141158;-64
2022/08/22 05:22:56;;;;;;;4.33;1.83;;;;;;;17.27;100.00;100696.77;5176521;56;1141537;-65
2022/08/22 05:28:30;;;;;;;4.67;2.30;;;;;;;17.28;100.00;100696.27;5180711;56;1141081;-65
2022/08/22 05:33:40;;;;;;;6.35;1.82;;;;;;;17.27;100.00;100702.62;5016227;58;1141069;-65
2022/08/22 05:38:59;;;;;;;7.17;2.00;;;;;;;17.31;100.00;100712.84;5189976;56;1141177;-64
2022/08/22 05:44:19;;;;;;;3.73;2.10;;;;;;;17.29;100.00;100712.66;5122936;57;1141093;-66
2022/08/22 05:49:42;;;;;;;10.17;2.27;;;;;;;17.30;100.00;100713.00;5052382;57;1141372;-64
2022/08/22 05:54:54;;;;;;;;;;;;;;;17.31;100.00;100718.20;5134366;57;1143480;-65
2022/08/22 06:00:12;;;;;;;6.97;2.23;;;;;;;17.31;100.00;100728.89;5173881;56;978556;-66
2022/08/22 06:05:28;;;;;;;7.17;1.97;;;;;;;17.33;100.00;100723.39;5228711;56;1139151;-64
2022/08/22 06:10:46;;;;;;;2.22;2.00;;;;;;;17.38;100.00;100722.42;5228276;56;1141307;-66
2022/08/22 06:16:11;;;;;;;7.05;2.15;;;;;;;17.36;100.00;100724.41;5145772;56;1139077;-66
2022/08/22 06:21:36;;;;;;;7.60;2.65;;;;;;;17.28;100.00;100721.67;5123448;57;1138982;-66
2022/08/22 06:26:45;;;;;;;9.20;1.75;;;;;;;17.21;100.00;100720.98;5126018;57;1139424;-64
2022/08/22 06:31:51;;;;;;;4.97;2.35;;;;;;;17.22;100.00;100720.48;5120220;57;1139086;-67
2022/08/22 06:37:02;;;;;;;2.50;2.03;;;;;;;17.21;100.00;100718.31;5121445;57;1139106;-66
2022/08/22 06:42:16;;;;;;;9.00;2.77;;;;;;;17.26;100.00;100720.52;5113947;57;1139444;-65
2022/08/22 06:47:26;;;;;;;4.62;2.33;;;;;;;17.26;100.00;100723.19;5120620;57;1137193;-65
2022/08/22 06:52:37;;;;;;;8.03;2.47;;;;;;;17.27;100.00;100721.33;5133390;57;21194;-67
2022/08/22 06:57:54;;;;;;;7.70;2.67;;;;;;;17.30;100.00;100727.20;5113729;57;1137059;-64
2022/08/22 07:03:16;;;;;;;6.55;2.20;;;;;;;17.34;100.00;100727.24;5118872;57;1141177;-66
2022/08/22 07:08:25;;;;;;;3.60;2.60;;;;;;;17.36;100.00;100731.09;5168863;57;1141210;-66
2022/08/22 07:13:32;;;;;;;5.12;2.58;;;;;;;17.40;100.00;100735.14;5180535;56;1141201;-67
2022/08/22 07:18:50;;;;;;;6.00;2.95;;;;;;;17.49;100.00;100739.03;5180490;57;1141327;-66
2022/08/22 07:24:00;;;;;;;3.85;2.72;;;;;;;17.40;100.00;100725.28;5180420;57;1140748;-68
2022/08/22 07:29:36;;;;;;;7.08;2.92;;;;;;;17.29;100.00;100724.69;5177910;57;1141443;-66
2022/08/22 07:34:47;;;;;;;5.90;2.33;;;;;;;17.34;100.00;100735.76;5178163;57;1141325;-64
2022/08/22 07:40:00;;;;;;;5.72;2.87;;;;;;;17.41;100.00;100731.47;5178690;57;1141314;-68
2022/08/22 07:45:13;;;;;;;7.00;2.83;;;;;;;17.47;100.00;100730.83;5174904;57;1141122;-67
2022/08/22 07:50:26;;;;;;;6.25;3.15;;;;;;;17.46;100.00;100729.98;5179973;57;1141285;-67
2022/08/22 07:55:33;;;;;;;5.10;2.55;;;;;;;17.49;100.00;100735.02;5180172;57;1141102;-65
2022/08/22 08:00:44;;;;;;;8.38;2.90;;;;;;;17.50;100.00;100727.34;5168943;57;1141121;-67
2022/08/22 08:05:51;;;;;;;6.45;3.33;;;;;;;17.55;100.00;100729.55;5181198;57;1141189;-64
2022/08/22 08:10:59;;;;;;;7.37;3.10;;;;;;;17.57;100.00;100716.33;5181090;57;1141079;-68
2022/08/22 08:16:10;;;;;;;3.58;3.27;;;;;;;17.68;100.00;100723.79;5195925;56;1141125;-67
2022/08/22 08:21:30;;;;;;;6.67;3.90;;;;;;;17.71;100.00;100719.47;5228362;56;1139116;-65
2022/08/22 08:32:12;;;;;;;6.45;4.33;;;;;;;17.76;100.00;100720.64;5227843;56;1139138;-66
2022/08/22 08:37:28;;;;;;;5.95;3.15;;;;;;;17.79;100.00;100728.35;5220571;56;1139349;-67
2022/08/22 08:49:01;;;;;;;10.00;3.80;;;;;;;17.84;100.00;100727.38;5227825;56;1143203;-64
2022/08/22 08:54:48;;;;;;;9.10;4.45;;;;;;;17.85;100.00;100726.88;5227455;56;1143183;-65
2022/08/22 09:00:16;;;;;;;8.03;5.08;;;;;;;17.91;100.00;100721.71;5228059;56;1141088;-67
2022/08/22 09:05:50;;;;;;;7.70;4.40;;;;;;;18.00;100.00;100721.75;5227511;56;1141106;-65
2022/08/22 09:11:24;;;;;;;12.20;4.45;;;;;;;18.14;100.00;100727.82;5221852;56;1141036;-64
2022/08/22 09:16:37;;;;;;;10.53;5.42;;;;;;;18.24;100.00;100733.86;5205900;56;1141239;-66
2022/08/22 09:22:05;;;;;;;11.05;4.60;;;;;;;18.34;100.00;100731.87;5180670;57;1141058;-63
2022/08/22 09:27:31;;;;;;;9.93;4.92;;;;;;;18.45;100.00;100733.42;5181055;57;1141352;-67
2022/08/22 09:32:53;;;;;;;9.25;4.75;;;;;;;18.47;100.00;100732.77;5157617;56;1139012;-64
2022/08/22 09:38:24;;;;;;;8.10;4.53;;;;;;;18.49;100.00;100733.41;5044591;57;1137071;-66
2022/08/22 09:43:43;;;;;;;7.85;4.30;;;;;;;18.54;100.00;100735.09;5051059;57;1141149;-64
2022/08/22 09:49:14;;;;;;;9.28;6.10;;;;;;;18.60;100.00;100735.83;5148306;56;1141140;-65
2022/08/22 09:54:35;;;;;;;8.98;4.65;;;;;;;18.66;100.00;100731.13;5235608;56;1141235;-68
2022/08/22 10:00:08;;;;;;;13.75;5.08;;;;;;;18.71;100.00;100729.30;5208620;56;1141161;-66
2022/08/22 10:05:19;;;;;;;10.55;5.50;;;;;;;18.74;100.00;100727.63;5235509;56;1143315;-65
2022/08/22 10:11:03;;;;;;;9.13;5.17;;;;;;;18.71;100.00;100731.47;5219439;56;1143173;-64
2022/08/22 10:16:47;;;;;;;5.75;4.15;;;;;;;18.66;100.00;100729.78;5233289;56;1141105;-64
2022/08/22 10:22:30;;;;;;;13.00;5.37;;;;;;;18.60;100.00;100735.32;5214771;56;1139025;-64
2022/08/22 10:27:54;;;;;;;5.15;3.10;;;;;;;18.65;100.00;100744.68;5247177;56;1141130;-66
2022/08/22 10:33:13;;;;;;;5.42;2.33;;;;;;;18.61;100.00;100747.72;5251567;56;1139179;-66
2022/08/22 10:38:37;;;;;;;2.15;1.62;;;;;;;18.33;100.00;100762.86;5250166;56;1141152;-64
2022/08/22 10:44:15;;;;;;;5.12;2.87;;;;;;;18.09;100.00;100760.42;5249948;56;1141074;-64
2022/08/22 10:49:28;;;;;;;2.55;1.77;;;;;;;18.05;100.00;100760.89;5251520;56;1141169;-65
2022/08/22 10:54:47;;;;;;;4.25;2.30;;;;;;;18.09;100.00;100760.92;5251638;56;1141136;-65
2022/08/22 11:00:00;;;;;;;6.08;1.72;;;;;;;18.11;100.00;100763.78;5248249;56;1141096;-66
2022/08/22 11:05:36;;;;;;;4.60;1.60;;;;;;;18.14;100.00;100755.93;5164816;57;1141099;-68
2022/08/22 11:11:12;;;;;;;4.62;1.65;;;;;;;18.14;100.00;100751.41;5124311;57;1141174;-68
2022/08/22 11:16:40;;;;;;;4.53;3.10;;;;;;;18.09;100.00;100745.70;5141866;57;1141122;-68
2022/08/22 11:21:59;;;;;;;11.16;6.96;;;;;;;17.99;100.00;100746.34;5144076;57;1141263;-65
2022/08/22 11:27:16;;;;;;;15.58;6.42;;;;;;;17.96;100.00;100747.16;5141241;57;1141035;-64
2022/08/22 11:33:05;;;;;;;24.00;9.90;;;;;;;17.86;100.00;100748.13;5149642;57;1141113;-65
2022/08/22 11:38:24;;;;;;;11.45;5.35;;;;;;;17.77;100.00;100749.08;5149761;57;1141214;-67
2022/08/22 11:44:02;;;;;;;8.90;5.10;;;;;;;17.74;100.00;100752.56;5205393;56;21151;-66
2022/08/22 11:49:39;;;;;;;6.30;3.33;;;;;;;17.90;100.00;100748.13;5200139;56;1136968;-68
2022/08/22 11:55:10;;;;;;;8.33;2.37;;;;;;;18.09;100.00;100744.86;5065303;58;1141188;-67
2022/08/22 12:00:34;;;;;;;18.07;4.60;;;;;;;18.24;100.00;100759.30;5148655;56;1141063;-65
2022/08/22 12:06:25;;;;;;;4.97;2.55;;;;;;;18.32;100.00;100752.65;5236141;56;1143174;-67
2022/08/22 12:11:38;;;;;;;3.50;1.85;;;;;;;18.42;100.00;100749.81;5235929;56;1141099;-67
2022/08/22 12:17:04;;;;;;;7.20;2.52;;;;;;;18.52;100.00;100747.31;5231080;56;1141110;-68
2022/08/22 12:22:52;;;;;;;6.05;1.98;;;;;;;18.66;100.00;100750.38;5247497;56;1139041;-65
2022/08/22 12:28:35;;;;;;;4.02;1.76;;;;;;;18.77;100.00;100754.09;5243780;56;1139040;-68
2022/08/22 12:34:11;;;;;;;5.85;1.67;;;;;;;18.87;100.00;100748.06;5267520;56;21154;-66
2022/08/22 12:39:42;;;;;;;3.08;1.95;;;;;;;18.95;100.00;100731.97;5247398;56;1136886;-67
2022/08/22 12:45:32;;;;;;;5.20;1.92;;;;;;;19.02;100.00;100732.14;5176895;56;1141129;-69
2022/08/22 12:51:02;;;;;;;3.72;2.90;;;;;;;19.15;100.00;100740.51;5160793;56;1141361;-65
2022/08/22 12:56:28;;;;;;;9.85;2.75;;;;;;;19.18;100.00;100738.34;5160533;56;1141115;-66
2022/08/22 13:01:45;;;;;;;6.95;2.42;;;;;;;19.24;100.00;100733.65;5186701;56;1141162;-66
2022/08/22 13:07:18;;;;;;;6.15;2.65;;;;;;;19.29;100.00;100731.77;5237902;56;1141020;-65
2022/08/22 13:12:33;;;;;;;6.90;2.62;;;;;;;19.35;100.00;100736.97;5160580;56;1139051;-67
2022/08/22 13:17:43;;;;;;;6.03;2.05;;;;;;;19.46;100.00;100729.40;5152690;57;1138986;-67
2022/08/22 13:22:49;;;;;;;10.98;2.67;;;;;;;19.55;100.00;100727.58;5164842;57;1139106;-66
2022/08/22 13:28:01;;;;;;;2.62;1.40;;;;;;;19.66;100.00;100729.38;5158906;56;1141307;-68
2022/08/22 13:33:27;;;;;;;13.38;2.22;;;;;;;19.77;100.00;100720.61;5251940;56;1139037;-67
2022/08/22 13:38:56;;;;;;;9.78;2.30;;;;;;;19.83;100.00;100727.48;5163309;57;1141359;-67
2022/08/22 13:44:19;;;;;;;5.80;2.70;;;;;;;19.88;100.00;100715.70;5165178;57;1141159;-67
2022/08/22 13:49:38;;;;;;;4.42;2.42;;;;;;;19.96;100.00;100710.30;5165179;57;1141230;-65
2022/08/22 13:55:07;;;;;;;4.97;2.27;;;;;;;20.00;100.00;100706.77;5163918;57;1141330;-65
2022/08/22 14:00:37;;;;;;;16.10;2.08;;;;;;;20.08;100.00;100699.16;5197068;56;1141225;-68
2022/08/22 14:05:51;;;;;;;5.95;2.02;;;;;;;20.23;100.00;100696.89;5217851;56;1143155;-66
2022/08/22 14:11:10;;;;;;;4.10;1.92;;;;;;;20.42;100.00;100692.95;5209798;56;1141081;-69
2022/08/22 14:16:29;;;;;;;10.25;2.35;;;;;;;20.51;100.00;100689.17;5200303;56;1141126;-68
2022/08/22 14:21:39;;;;;;;5.33;2.08;;;;;;;20.63;100.00;100684.20;5219458;56;1143211;-69
2022/08/22 14:27:07;;;;;;;6.12;2.42;;;;;;;20.84;100.00;100679.00;5209564;56;1141103;-68
2022/08/22 14:32:24;;;;;;;5.17;2.08;;;;;;;21.03;100.00;100677.66;5192439;56;1141121;-67
2022/08/22 14:37:40;;;;;;;9.13;2.50;;;;;;;21.18;100.00;100679.02;5205981;56;1139128;-68
2022/08/22 14:42:54;;;;;;;17.17;2.17;;;;;;;21.43;100.00;100674.23;5213891;56;1139057;-67
2022/08/22 14:48:13;;;;;;;10.00;1.80;;;;;;;21.58;100.00;100673.21;5226917;56;1141207;-66
2022/08/22 14:53:28;;;;;;;8.50;2.05;;;;;;;21.61;100.00;100674.19;5166751;56;1141180;-67
2022/08/22 14:58:50;;;;;;;5.40;1.80;;;;;;;21.64;100.00;100677.86;5197864;56;1139318;-69
2022/08/22 15:04:09;;;;;;;12.77;2.30;;;;;;;21.67;100.00;100675.31;5228790;56;1139078;-66
2022/08/22 15:09:40;;;;;;;8.83;2.20;;;;;;;21.72;100.00;100671.52;5216873;56;1143460;-68
2022/08/22 15:14:50;;;;;;;8.58;2.50;;;;;;;21.72;100.00;100680.44;5238077;56;1141059;-68
2022/08/22 15:20:09;;;;;;;5.83;1.87;;;;;;;21.78;100.00;100682.06;5191858;56;1141055;-67
2022/08/22 15:25:21;;;;;;;4.90;1.55;;;;;;;21.83;100.00;100671.06;5181226;56;1141209;-66
2022/08/22 15:30:35;;;;;;;14.50;2.05;;;;;;;21.90;100.00;100668.44;5195139;56;1141176;-67
2022/08/22 15:35:44;;;;;;;3.95;1.75;;;;;;;21.87;100.00;100651.30;5235439;56;1143210;-69
2022/08/22 15:40:50;;;;;;;8.36;1.48;;;;;;;22.00;100.00;100654.17;5208157;56;1141302;-69
2022/08/22 15:46:24;;;;;;;4.70;1.35;;;;;;;22.04;100.00;100666.25;5149258;57;1141050;-66
2022/08/22 15:51:50;;;;;;;6.20;1.65;;;;;;;21.88;100.00;100655.66;5149258;57;1141255;-68
2022/08/22 15:57:24;;;;;;;5.40;2.10;;;;;;;21.88;100.00;100655.66;5143563;57;1141117;-67
2022/08/22 16:02:43;;;;;;;3.33;1.60;;;;;;;21.85;100.00;100662.27;5192176;56;1141231;-66
2022/08/22 16:08:05;;;;;;;3.40;1.82;;;;;;;21.81;100.00;100660.99;5232270;56;1139418;-67
2022/08/22 16:13:32;;;;;;;7.42;2.12;;;;;;;21.75;100.00;100666.61;5191699;56;1139178;-69
2022/08/22 16:18:48;;;;;;;9.55;1.92;;;;;;;21.65;100.00;100662.55;5236120;56;1139133;-67
2022/08/22 16:24:01;;;;;;;2.58;1.67;;;;;;;21.54;100.00;100662.48;5246390;56;1139385;-66
2022/08/22 16:29:35;;;;;;;2.47;1.40;;;;;;;21.49;100.00;100664.09;5247760;56;1139034;-66
2022/08/22 16:34:44;;;;;;;3.37;2.22;;;;;;;21.39;100.00;100667.87;5247587;56;1141239;-66
2022/08/22 16:40:05;;;;;;;7.85;2.15;;;;;;;21.25;100.00;100666.02;5247392;56;1141017;-67
2022/08/22 16:45:35;;;;;;;7.42;2.00;;;;;;;21.19;100.00;100673.50;5247086;56;1141359;-67
2022/08/22 16:50:43;;;;;;;13.43;2.40;;;;;;;21.13;100.00;100677.38;5247191;56;1141343;-67
2022/08/22 16:56:20;;;;;;;8.95;2.40;;;;;;;21.04;100.00;100680.67;5247438;56;1143226;-68
2022/08/22 17:02:05;;;;;;;6.40;4.58;;;;;;;20.93;100.00;100682.47;5213996;56;1141268;-69
2022/08/22 17:07:25;;;;;;;12.70;9.68;;;;;;;20.84;100.00;100680.34;5246203;56;1141152;-67
2022/08/22 17:12:53;;;;;;;11.85;5.33;;;;;;;20.79;100.00;100686.77;5242755;56;1143259;-69
2022/08/22 17:18:15;;;;;;;10.63;4.90;;;;;;;20.73;100.00;100689.36;5241935;56;1141206;-68
2022/08/22 17:23:51;;;;;;;10.37;4.37;;;;;;;20.65;100.00;100691.08;5230632;56;1141186;-66
2022/08/22 17:29:22;;;;;;;6.53;4.80;;;;;;;20.65;100.00;100695.63;5235540;56;1141180;-65
2022/08/22 17:34:50;;;;;;;18.12;8.35;;;;;;;20.62;100.00;100700.84;5149411;57;1139134;-65
2022/08/22 17:40:20;;;;;;;12.73;6.40;;;;;;;20.54;100.00;100696.89;5067370;57;1143179;-67
2022/08/22 17:45:46;;;;;;;8.90;5.12;;;;;;;20.49;100.00;100699.27;5149512;57;1143247;-66
2022/08/22 17:51:22;;;;;;;8.23;4.08;;;;;;;20.45;100.00;100703.85;5126295;57;1141357;-66
2022/08/22 17:56:45;;;;;;;19.02;5.70;;;;;;;20.38;100.00;100706.91;5108044;57;1141274;-68
2022/08/22 18:02:27;;;;;;;15.15;5.80;;;;;;;20.26;100.00;100711.32;5126017;57;1143249;-67
2022/08/22 18:08:02;;;;;;;7.47;3.08;;;;;;;20.21;100.00;100711.50;5126097;57;1143321;-68
2022/08/22 18:13:37;;;;;;;7.40;3.65;;;;;;;20.21;100.00;100707.48;5068275;57;1141276;-68
2022/08/22 18:18:57;;;;;;;;;;;;;;;20.21;100.00;100718.22;5106694;57;1139116;-67
2022/08/22 18:24:14;;;;;;;6.10;3.00;;;;;;;20.24;100.00;100724.59;5063934;57;976304;-69
2022/08/22 18:29:28;;;;;;;6.75;2.60;;;;;;;20.26;100.00;100735.49;5088089;57;1137212;-66
2022/08/22 18:34:56;;;;;;;12.63;3.35;;;;;;;20.27;100.00;100733.64;5145691;57;1139062;-68
2022/08/22 18:40:09;;;;;;;8.58;3.42;;;;;;;20.17;100.00;100742.41;5120341;57;1143188;-68
2022/08/22 18:45:38;;;;;;;124.00;81.40;;;;;;;20.09;100.00;100741.12;5144735;57;1141412;-68
2022/08/22 18:50:44;;;;;;;12.30;7.45;;;;;;;20.11;100.00;100737.25;5061098;57;1147717;-69
2022/08/22 18:55:56;;;;;;;18.85;6.25;;;;;;;20.19;100.00;100743.91;5119237;57;1143421;-67
2022/08/22 19:01:33;;;;;;;11.37;4.53;;;;;;;20.25;100.00;100743.22;5024782;57;1143764;-67
2022/08/22 19:06:59;;;;;;;6.17;3.62;;;;;;;20.25;100.00;100742.37;5071162;57;1143505;-68
2022/08/22 19:12:40;;;;;;;7.67;3.45;;;;;;;20.15;100.00;100739.92;5061224;58;1141083;-66
2022/08/22 19:18:06;;;;;;;18.27;14.07;;;;;;;20.12;100.00;100742.95;5065073;58;1141437;-66
2022/08/22 19:23:42;;;;;;;11.22;4.40;;;;;;;20.05;100.00;100739.78;5023917;57;1145649;-64
2022/08/22 19:28:50;;;;;;;9.38;4.15;;;;;;;20.03;100.00;100735.93;5123508;57;1141421;-67
2022/08/22 19:34:35;;;;;;;26.33;16.70;;;;;;;20.02;100.00;100743.15;5079134;57;1139486;-65
2022/08/22 19:40:08;;;;;;;11.25;6.05;;;;;;;20.12;100.00;100743.46;5123212;57;1143774;-69
2022/08/22 19:45:27;;;;;;;10.93;4.67;;;;;;;20.17;100.00;100751.80;5133626;57;1143124;-67
2022/08/22 19:50:36;;;;;;;16.17;4.70;;;;;;;20.18;100.00;100760.20;5080462;57;1143432;-66
2022/08/22 19:55:53;;;;;;;8.58;4.03;;;;;;;20.15;100.00;100764.09;5132715;57;1143495;-67
2022/08/22 20:01:17;;;;;;;8.05;3.85;;;;;;;20.05;100.00;100767.48;5133408;56;1141325;-70
2022/08/22 20:06:31;;;;;;;14.35;4.05;;;;;;;20.01;100.00;100766.17;5148274;56;1141539;-65
2022/08/22 20:12:09;;;;;;;6.70;2.60;;;;;;;19.95;100.00;100774.41;5078810;57;1143315;-67
2022/08/22 20:17:37;;;;;;;7.47;2.85;;;;;;;19.90;100.00;100773.24;5083290;57;1141394;-69
2022/08/22 20:22:57;;;;;;;12.73;2.60;;;;;;;19.85;100.00;100769.75;5086294;57;1141084;-64
2022/08/22 20:28:07;;;;;;;7.55;2.35;;;;;;;19.76;100.00;100756.02;5089828;57;1143258;-69
2022/08/22 20:33:19;;;;;;;3.98;2.08;;;;;;;19.68;100.00;100753.36;5078810;57;1141130;-66
2022/08/22 20:38:33;;;;;;;;;;;;;;;19.66;100.00;100744.14;5205596;56;1141141;-66
2022/08/22 20:43:44;;;;;;;;;;;;;;;19.62;100.00;100745.99;5197927;56;978480;-68
2022/08/22 20:48:53;;;;;;;3.42;1.90;;;;;;;19.58;100.00;100739.28;5199375;56;974253;-66
2022/08/22 20:54:03;;;;;;;5.65;1.62;;;;;;;19.57;100.00;100740.29;5200466;56;1137232;-69
2022/08/22 20:59:34;;;;;;;8.90;1.95;;;;;;;19.58;100.00;100736.09;5190267;56;1139413;-67
2022/08/22 21:05:05;;;;;;;6.15;1.65;;;;;;;19.60;100.00;100738.61;5111034;57;1139356;-68
2022/08/22 21:15:58;;;;;;;5.20;1.90;;;;;;;19.52;100.00;100735.97;5197778;56;1141163;-64
2022/08/22 21:21:13;;;;;;;12.07;1.95;;;;;;;19.50;100.00;100736.13;5185652;56;1141150;-64
2022/08/22 21:26:37;;;;;;;4.92;2.05;;;;;;;19.49;100.00;100733.59;5175661;56;1143545;-66
2022/08/22 21:31:54;;;;;;;6.60;1.57;;;;;;;19.44;100.00;100734.59;5130488;57;1141578;-65
2022/08/22 21:37:10;;;;;;;7.08;1.70;;;;;;;19.33;100.00;100711.16;5133153;57;1141474;-68
2022/08/22 21:42:35;;;;;;;4.37;1.47;;;;;;;19.31;100.00;100713.67;5141604;57;1140999;-68
2022/08/22 21:47:44;;;;;;;4.75;1.47;;;;;;;19.27;100.00;100713.17;5141484;57;1141076;-68
2022/08/22 21:53:11;;;;;;;3.15;1.40;;;;;;;19.28;100.00;100718.87;5142070;56;1141398;-67
2022/08/22 21:58:24;;;;;;;9.53;1.45;;;;;;;19.23;100.00;100714.55;5142862;56;1141144;-67
2022/08/22 22:03:35;;;;;;;6.50;1.77;;;;;;;19.17;100.00;100711.69;5129635;57;1141233;-66
2022/08/22 22:08:41;;;;;;;4.62;1.70;;;;;;;19.20;100.00;100706.83;4995071;58;1141309;-66
2022/08/22 22:13:47;;;;;;;3.08;1.57;;;;;;;19.21;100.00;100700.97;5137107;57;1141329;-68
2022/08/22 22:18:55;;;;;;;2.22;1.80;;;;;;;19.15;100.00;100694.42;5160688;57;1141111;-67
2022/08/22 22:24:02;;;;;;;2.22;1.72;;;;;;;19.17;100.00;100688.39;5134046;57;1139034;-65
2022/08/22 22:29:09;;;;;;;5.92;1.92;;;;;;;19.22;100.00;100689.23;5152531;57;1139007;-65
2022/08/22 22:34:15;;;;;;;3.35;1.95;;;;;;;19.19;100.00;100683.70;5154499;56;1139017;-67
2022/08/22 22:39:21;;;;;;;3.67;1.60;;;;;;;19.19;100.00;100673.48;5160986;57;1139338;-69
2022/08/22 22:44:27;;;;;;;12.63;2.02;;;;;;;19.19;100.00;100678.34;5148831;57;1139547;-67
2022/08/22 22:49:34;;;;;;;7.03;1.50;;;;;;;19.22;100.00;100679.34;5150703;57;1141424;-68
2022/08/22 22:54:40;;;;;;;3.90;1.62;;;;;;;19.18;100.00;100688.73;5155300;57;1139525;-65
2022/08/22 22:59:47;;;;;;;1.20;1.17;;;;;;;19.16;100.00;100688.56;5126804;57;1139099;-66
2022/08/22 23:04:56;;;;;;;4.08;1.55;;;;;;;19.07;100.00;100689.09;5024097;58;1139097;-68
2022/08/22 23:10:05;;;;;;;5.37;1.40;;;;;;;19.06;100.00;100679.88;5061954;57;1139148;-67
2022/08/22 23:15:10;;;;;;;6.53;1.82;;;;;;;19.05;100.00;100686.23;5159374;56;1139404;-66
2022/08/22 23:20:16;;;;;;;3.92;1.90;;;;;;;19.05;100.00;100683.06;5103249;57;1139803;-68
2022/08/22 23:25:22;;;;;;;6.67;1.80;;;;;;;19.04;100.00;100669.32;5156343;57;1139476;-68
2022/08/22 23:30:29;;;;;;;4.85;1.50;;;;;;;19.02;100.00;100666.47;5125780;57;1139571;-65
2022/08/22 23:35:34;;;;;;;4.10;1.62;;;;;;;18.99;100.00;100667.64;5124836;57;1139309;-67
2022/08/22 23:40:40;;;;;;;4.42;1.40;;;;;;;19.00;100.00;100670.66;5114303;57;1139126;-66
2022/08/22 23:45:46;;;;;;;4.67;1.85;;;;;;;18.97;100.00;100681.20;5123666;57;1139105;-65
2022/08/22 23:50:52;;;;;;;4.35;1.80;;;;;;;18.94;100.00;100678.05;5132215;57;1137028;-67
2022/08/22 23:56:09;;;;;;;4.65;1.80;;;;;;;18.94;100.00;100683.41;5178870;57;1137043;-68
